sensor_id;sensor_type;location;lat;lon;timestamp;pressure;altitude;pressure_sealevel;temperature;humidity
71857;BME280;63344;46.980;28.882;2023-01-28T00:02:01;100700.66;;;-2.56;90.81
71857;BME280;63344;46.980;28.882;2023-01-28T00:04:29;100687.69;;;-2.54;90.29
71857;BME280;63344;46.980;28.882;2023-01-28T00:06:56;100689.44;;;-2.55;90.66
71857;BME280;63344;46.980;28.882;2023-01-28T00:09:26;100698.09;;;-2.54;90.62
71857;BME280;63344;46.980;28.882;2023-01-28T00:11:53;100682.50;;;-2.54;90.03
71857;BME280;63344;46.980;28.882;2023-01-28T00:14:20;100692.88;;;-2.57;90.41
71857;BME280;63344;46.980;28.882;2023-01-28T00:16:47;100672.91;;;-2.58;90.53
71857;BME280;63344;46.980;28.882;2023-01-28T00:19:14;100683.34;;;-2.57;90.19
71857;BME280;63344;46.980;28.882;2023-01-28T00:21:43;100690.28;;;-2.57;90.48
71857;BME280;63344;46.980;28.882;2023-01-28T00:24:11;100678.13;;;-2.57;90.32
71857;BME280;63344;46.980;28.882;2023-01-28T00:26:38;100689.44;;;-2.55;90.16
71857;BME280;63344;46.980;28.882;2023-01-28T00:29:05;100686.84;;;-2.55;90.23
71857;BME280;63344;46.980;28.882;2023-01-28T00:31:32;100687.69;;;-2.57;90.33
71857;BME280;63344;46.980;28.882;2023-01-28T00:34:01;100682.50;;;-2.54;90.40
71857;BME280;63344;46.980;28.882;2023-01-28T00:36:28;100694.66;;;-2.52;90.12
71857;BME280;63344;46.980;28.882;2023-01-28T00:38:57;100684.28;;;-2.53;90.54
71857;BME280;63344;46.980;28.882;2023-01-28T00:41:27;100689.50;;;-2.50;90.09
71857;BME280;63344;46.980;28.882;2023-01-28T00:43:55;100688.63;;;-2.51;90.35
71857;BME280;63344;46.980;28.882;2023-01-28T00:46:22;100701.66;;;-2.49;90.03
71857;BME280;63344;46.980;28.882;2023-01-28T00:48:52;100707.75;;;-2.47;90.22
71857;BME280;63344;46.980;28.882;2023-01-28T00:51:20;100703.38;;;-2.50;90.17
71857;BME280;63344;46.980;28.882;2023-01-28T00:53:48;100706.94;;;-2.45;89.98
71857;BME280;63344;46.980;28.882;2023-01-28T00:56:16;100704.31;;;-2.45;89.56
71857;BME280;63344;46.980;28.882;2023-01-28T00:58:46;100694.72;;;-2.49;89.55
71857;BME280;63344;46.980;28.882;2023-01-28T01:01:19;100692.16;;;-2.47;89.88
71857;BME280;63344;46.980;28.882;2023-01-28T01:03:47;100710.41;;;-2.44;89.92
71857;BME280;63344;46.980;28.882;2023-01-28T01:06:23;100709.53;;;-2.45;89.78
71857;BME280;63344;46.980;28.882;2023-01-28T01:08:51;100704.34;;;-2.43;89.84
71857;BME280;63344;46.980;28.882;2023-01-28T01:11:18;100700.06;;;-2.41;90.06
71857;BME280;63344;46.980;28.882;2023-01-28T01:13:54;100681.88;;;-2.39;89.22
71857;BME280;63344;46.980;28.882;2023-01-28T01:16:23;100697.38;;;-2.44;88.81
71857;BME280;63344;46.980;28.882;2023-01-28T01:18:51;100696.53;;;-2.45;88.77
71857;BME280;63344;46.980;28.882;2023-01-28T01:21:21;100695.59;;;-2.48;89.22
71857;BME280;63344;46.980;28.882;2023-01-28T01:23:50;100699.03;;;-2.51;88.93
71857;BME280;63344;46.980;28.882;2023-01-28T01:26:17;100688.63;;;-2.51;88.82
71857;BME280;63344;46.980;28.882;2023-01-28T01:28:45;100691.28;;;-2.46;89.01
71857;BME280;63344;46.980;28.882;2023-01-28T01:31:17;100697.34;;;-2.46;88.97
71857;BME280;63344;46.980;28.882;2023-01-28T01:33:47;100695.63;;;-2.47;88.66
71857;BME280;63344;46.980;28.882;2023-01-28T01:36:16;100680.91;;;-2.45;88.86
71857;BME280;63344;46.980;28.882;2023-01-28T01:38:44;100693.03;;;-2.47;88.94
71857;BME280;63344;46.980;28.882;2023-01-28T01:41:25;100693.00;;;-2.48;89.05
71857;BME280;63344;46.980;28.882;2023-01-28T01:43:57;100699.97;;;-2.46;89.35
71857;BME280;63344;46.980;28.882;2023-01-28T01:46:37;100699.06;;;-2.48;90.98
71857;BME280;63344;46.980;28.882;2023-01-28T01:49:23;100704.22;;;-2.51;91.81
71857;BME280;63344;46.980;28.882;2023-01-28T01:51:59;100699.88;;;-2.52;90.54
71857;BME280;63344;46.980;28.882;2023-01-28T01:54:29;100698.88;;;-2.60;91.63
71857;BME280;63344;46.980;28.882;2023-01-28T01:56:58;100694.59;;;-2.56;91.19
71857;BME280;63344;46.980;28.882;2023-01-28T01:59:29;100700.69;;;-2.54;91.09
71857;BME280;63344;46.980;28.882;2023-01-28T02:02:00;100708.56;;;-2.51;90.77
71857;BME280;63344;46.980;28.882;2023-01-28T02:04:32;100704.22;;;-2.51;90.68
71857;BME280;63344;46.980;28.882;2023-01-28T02:07:06;100703.38;;;-2.51;90.30
71857;BME280;63344;46.980;28.882;2023-01-28T02:09:35;100690.34;;;-2.53;90.00
71857;BME280;63344;46.980;28.882;2023-01-28T02:12:08;100692.97;;;-2.51;89.55
71857;BME280;63344;46.980;28.882;2023-01-28T02:14:41;100695.56;;;-2.50;89.03
71857;BME280;63344;46.980;28.882;2023-01-28T02:17:10;100697.34;;;-2.47;89.21
71857;BME280;63344;46.980;28.882;2023-01-28T02:20:05;100686.06;;;-2.48;88.82
71857;BME280;63344;46.980;28.882;2023-01-28T02:28:53;100688.66;;;-2.48;89.11
71857;BME280;63344;46.980;28.882;2023-01-28T02:36:48;100684.38;;;-2.47;89.09
71857;BME280;63344;46.980;28.882;2023-01-28T02:39:23;100688.72;;;-2.45;89.12
71857;BME280;63344;46.980;28.882;2023-01-28T02:42:00;100687.88;;;-2.44;89.34
71857;BME280;63344;46.980;28.882;2023-01-28T02:44:31;100679.22;;;-2.43;89.46
71857;BME280;63344;46.980;28.882;2023-01-28T02:46:59;100686.19;;;-2.42;89.54
71857;BME280;63344;46.980;28.882;2023-01-28T02:49:51;100684.47;;;-2.39;89.10
71857;BME280;63344;46.980;28.882;2023-01-28T03:00:55;100684.50;;;-2.36;89.38
71857;BME280;63344;46.980;28.882;2023-01-28T03:03:51;100682.81;;;-2.34;89.48
71857;BME280;63344;46.980;28.882;2023-01-28T03:06:27;100675.03;;;-2.33;89.30
71857;BME280;63344;46.980;28.882;2023-01-28T03:09:00;100682.84;;;-2.33;89.38
71857;BME280;63344;46.980;28.882;2023-01-28T03:11:58;100672.44;;;-2.33;89.67
71857;BME280;63344;46.980;28.882;2023-01-28T03:14:49;100666.47;;;-2.24;89.69
71857;BME280;63344;46.980;28.882;2023-01-28T03:17:43;100673.44;;;-2.23;89.51
71857;BME280;63344;46.980;28.882;2023-01-28T03:24:06;100670.81;;;-2.25;89.49
71857;BME280;63344;46.980;28.882;2023-01-28T03:27:08;100670.91;;;-2.17;89.54
71857;BME280;63344;46.980;28.882;2023-01-28T03:29:58;100664.88;;;-2.14;89.46
71857;BME280;63344;46.980;28.882;2023-01-28T03:32:47;100649.31;;;-2.11;89.46
71857;BME280;63344;46.980;28.882;2023-01-28T03:35:35;100664.09;;;-2.09;89.22
71857;BME280;63344;46.980;28.882;2023-01-28T03:38:22;100654.59;;;-2.05;89.60
71857;BME280;63344;46.980;28.882;2023-01-28T03:40:54;100660.72;;;-2.02;89.49
71857;BME280;63344;46.980;28.882;2023-01-28T03:43:23;100662.44;;;-2.04;89.77
71857;BME280;63344;46.980;28.882;2023-01-28T03:45:50;100659.84;;;-2.01;90.24
71857;BME280;63344;46.980;28.882;2023-01-28T03:48:19;100663.34;;;-1.98;90.25
71857;BME280;63344;46.980;28.882;2023-01-28T03:50:47;100660.72;;;-2.00;90.58
71857;BME280;63344;46.980;28.882;2023-01-28T03:53:15;100668.59;;;-1.95;90.66
71857;BME280;63344;46.980;28.882;2023-01-28T03:55:47;100645.19;;;-1.94;91.30
71857;BME280;63344;46.980;28.882;2023-01-28T03:58:16;100666.00;;;-1.95;91.76
71857;BME280;63344;46.980;28.882;2023-01-28T04:00:43;100666.84;;;-1.96;92.07
71857;BME280;63344;46.980;28.882;2023-01-28T04:03:17;100655.56;;;-1.97;92.18
71857;BME280;63344;46.980;28.882;2023-01-28T04:05:57;100656.41;;;-1.98;92.30
71857;BME280;63344;46.980;28.882;2023-01-28T04:08:27;100661.66;;;-1.96;92.89
71857;BME280;63344;46.980;28.882;2023-01-28T04:10:54;100657.34;;;-1.93;93.07
71857;BME280;63344;46.980;28.882;2023-01-28T04:13:22;100665.97;;;-1.97;93.27
71857;BME280;63344;46.980;28.882;2023-01-28T04:15:49;100660.81;;;-1.95;93.09
71857;BME280;63344;46.980;28.882;2023-01-28T04:18:17;100677.34;;;-1.90;93.39
71857;BME280;63344;46.980;28.882;2023-01-28T04:20:47;100673.88;;;-1.89;93.45
71857;BME280;63344;46.980;28.882;2023-01-28T04:23:15;100659.16;;;-1.87;93.58
71857;BME280;63344;46.980;28.882;2023-01-28T04:25:43;100667.78;;;-1.90;93.49
71857;BME280;63344;46.980;28.882;2023-01-28T04:28:11;100668.72;;;-1.85;93.81
71857;BME280;63344;46.980;28.882;2023-01-28T04:30:38;100660.94;;;-1.83;93.76
71857;BME280;63344;46.980;28.882;2023-01-28T04:33:05;100649.69;;;-1.81;93.87
71857;BME280;63344;46.980;28.882;2023-01-28T04:35:33;100663.56;;;-1.80;93.87
71857;BME280;63344;46.980;28.882;2023-01-28T04:38:00;100656.63;;;-1.81;94.08
71857;BME280;63344;46.980;28.882;2023-01-28T04:40:27;100664.53;;;-1.75;93.86
71857;BME280;63344;46.980;28.882;2023-01-28T04:42:57;100662.81;;;-1.73;93.60
71857;BME280;63344;46.980;28.882;2023-01-28T04:45:27;100671.59;;;-1.63;93.32
71857;BME280;63344;46.980;28.882;2023-01-28T04:47:55;100669.88;;;-1.63;92.95
71857;BME280;63344;46.980;28.882;2023-01-28T04:50:24;100681.22;;;-1.56;92.84
71857;BME280;63344;46.980;28.882;2023-01-28T04:52:51;100663.03;;;-1.53;92.43
71857;BME280;63344;46.980;28.882;2023-01-28T04:55:18;100675.28;;;-1.46;91.63
71857;BME280;63344;46.980;28.882;2023-01-28T04:57:46;100677.88;;;-1.44;91.49
71857;BME280;63344;46.980;28.882;2023-01-28T05:00:14;100678.75;;;-1.42;91.56
71857;BME280;63344;46.980;28.882;2023-01-28T05:02:42;100676.16;;;-1.42;90.87
71857;BME280;63344;46.980;28.882;2023-01-28T05:05:10;100681.44;;;-1.36;91.01
71857;BME280;63344;46.980;28.882;2023-01-28T05:07:46;100681.50;;;-1.31;89.94
71857;BME280;63344;46.980;28.882;2023-01-28T05:10:16;100681.53;;;-1.27;90.14
71857;BME280;63344;46.980;28.882;2023-01-28T05:12:46;100678.94;;;-1.27;89.86
71857;BME280;63344;46.980;28.882;2023-01-28T05:15:15;100685.91;;;-1.24;89.72
71857;BME280;63344;46.980;28.882;2023-01-28T05:17:43;100686.81;;;-1.24;89.48
71857;BME280;63344;46.980;28.882;2023-01-28T05:20:12;100678.16;;;-1.19;89.61
71857;BME280;63344;46.980;28.882;2023-01-28T05:22:40;100665.06;;;-1.26;88.95
71857;BME280;63344;46.980;28.882;2023-01-28T05:25:08;100683.44;;;-1.13;89.06
71857;BME280;63344;46.980;28.882;2023-01-28T05:27:36;100683.44;;;-1.13;88.56
71857;BME280;63344;46.980;28.882;2023-01-28T05:30:06;100665.16;;;-1.15;88.75
71857;BME280;63344;46.980;28.882;2023-01-28T05:33:02;100686.97;;;-1.05;88.43
71857;BME280;63344;46.980;28.882;2023-01-28T05:35:30;100696.53;;;-1.06;88.05
71857;BME280;63344;46.980;28.882;2023-01-28T05:38:01;100702.63;;;-1.04;88.31
71857;BME280;63344;46.980;28.882;2023-01-28T05:40:48;100692.25;;;-0.97;87.86
71857;BME280;63344;46.980;28.882;2023-01-28T05:43:15;100700.06;;;-0.96;87.27
71857;BME280;63344;46.980;28.882;2023-01-28T05:45:43;100712.22;;;-0.98;87.38
71857;BME280;63344;46.980;28.882;2023-01-28T05:48:16;100707.91;;;-0.96;87.77
71857;BME280;63344;46.980;28.882;2023-01-28T05:50:45;100714.91;;;-0.90;86.95
71857;BME280;63344;46.980;28.882;2023-01-28T05:53:14;100712.28;;;-0.90;86.94
71857;BME280;63344;46.980;28.882;2023-01-28T05:55:41;100719.28;;;-0.86;86.36
71857;BME280;63344;46.980;28.882;2023-01-28T05:58:09;100725.41;;;-0.86;85.98
71857;BME280;63344;46.980;28.882;2023-01-28T06:00:36;100714.09;;;-0.85;85.77
71857;BME280;63344;46.980;28.882;2023-01-28T06:03:03;100713.25;;;-0.82;85.39
71857;BME280;63344;46.980;28.882;2023-01-28T06:05:30;100727.22;;;-0.75;85.47
71857;BME280;63344;46.980;28.882;2023-01-28T06:07:59;100728.13;;;-0.73;85.30
71857;BME280;63344;46.980;28.882;2023-01-28T06:10:26;100732.50;;;-0.69;85.09
71857;BME280;63344;46.980;28.882;2023-01-28T06:12:55;100727.22;;;-0.72;84.49
71857;BME280;63344;46.980;28.882;2023-01-28T06:15:26;100736.00;;;-0.67;84.71
71857;BME280;63344;46.980;28.882;2023-01-28T06:17:53;100739.56;;;-0.57;84.00
71857;BME280;63344;46.980;28.882;2023-01-28T06:20:20;100732.53;;;-0.65;83.73
71857;BME280;63344;46.980;28.882;2023-01-28T06:22:51;100740.38;;;-0.62;83.50
71857;BME280;63344;46.980;28.882;2023-01-28T06:25:18;100728.22;;;-0.58;83.65
71857;BME280;63344;46.980;28.882;2023-01-28T06:27:46;100744.78;;;-0.57;83.24
71857;BME280;63344;46.980;28.882;2023-01-28T06:30:15;100750.06;;;-0.50;82.84
71857;BME280;63344;46.980;28.882;2023-01-28T06:32:56;100728.25;;;-0.55;83.42
71857;BME280;63344;46.980;28.882;2023-01-28T06:35:34;100747.44;;;-0.51;83.45
71857;BME280;63344;46.980;28.882;2023-01-28T06:38:03;100737.88;;;-0.46;83.11
71857;BME280;63344;46.980;28.882;2023-01-28T06:40:30;100730.06;;;-0.48;82.75
71857;BME280;63344;46.980;28.882;2023-01-28T06:42:58;100748.34;;;-0.45;82.84
71857;BME280;63344;46.980;28.882;2023-01-28T06:45:25;100750.91;;;-0.49;83.31
71857;BME280;63344;46.980;28.882;2023-01-28T06:47:53;100765.75;;;-0.44;83.46
71857;BME280;63344;46.980;28.882;2023-01-28T06:50:20;100750.09;;;-0.45;83.14
71857;BME280;63344;46.980;28.882;2023-01-28T06:52:47;100758.81;;;-0.40;83.08
71857;BME280;63344;46.980;28.882;2023-01-28T06:55:15;100756.22;;;-0.42;83.07
71857;BME280;63344;46.980;28.882;2023-01-28T06:57:42;100752.72;;;-0.44;83.46
71857;BME280;63344;46.980;28.882;2023-01-28T07:00:11;100751.91;;;-0.33;82.88
71857;BME280;63344;46.980;28.882;2023-01-28T07:02:42;100747.53;;;-0.39;83.38
71857;BME280;63344;46.980;28.882;2023-01-28T07:05:10;100747.56;;;-0.36;83.25
71857;BME280;63344;46.980;28.882;2023-01-28T07:07:37;100749.28;;;-0.36;83.04
71857;BME280;63344;46.980;28.882;2023-01-28T07:10:09;100748.38;;;-0.42;83.32
71857;BME280;63344;46.980;28.882;2023-01-28T07:12:52;100759.72;;;-0.35;83.62
71857;BME280;63344;46.980;28.882;2023-01-28T07:15:21;100745.75;;;-0.40;83.53
71857;BME280;63344;46.980;28.882;2023-01-28T07:17:51;100751.03;;;-0.32;83.25
71857;BME280;63344;46.980;28.882;2023-01-28T07:20:20;100753.66;;;-0.32;83.43
71857;BME280;63344;46.980;28.882;2023-01-28T07:22:53;100759.72;;;-0.36;83.16
71857;BME280;63344;46.980;28.882;2023-01-28T07:25:22;100745.78;;;-0.42;83.53
71857;BME280;63344;46.980;28.882;2023-01-28T07:28:12;100756.25;;;-0.35;83.42
71857;BME280;63344;46.980;28.882;2023-01-28T07:30:40;100761.44;;;-0.37;83.40
71857;BME280;63344;46.980;28.882;2023-01-28T07:33:09;100758.03;;;-0.31;83.57
71857;BME280;63344;46.980;28.882;2023-01-28T07:35:37;100757.13;;;-0.33;83.46
71857;BME280;63344;46.980;28.882;2023-01-28T07:38:04;100757.16;;;-0.30;83.03
71857;BME280;63344;46.980;28.882;2023-01-28T07:40:37;100752.81;;;-0.28;83.11
71857;BME280;63344;46.980;28.882;2023-01-28T07:43:05;100746.75;;;-0.27;82.55
71857;BME280;63344;46.980;28.882;2023-01-28T07:45:33;100745.88;;;-0.26;82.45
71857;BME280;63344;46.980;28.882;2023-01-28T07:48:06;100750.19;;;-0.28;82.31
71857;BME280;63344;46.980;28.882;2023-01-28T07:50:35;100757.19;;;-0.24;82.88
71857;BME280;63344;46.980;28.882;2023-01-28T07:53:06;100739.84;;;-0.19;82.68
71857;BME280;63344;46.980;28.882;2023-01-28T07:55:44;100738.13;;;-0.17;82.64
71857;BME280;63344;46.980;28.882;2023-01-28T07:58:24;100720.66;;;-0.27;82.58
71857;BME280;63344;46.980;28.882;2023-01-28T08:00:55;100726.75;;;-0.25;82.60
71857;BME280;63344;46.980;28.882;2023-01-28T08:03:24;100741.56;;;-0.23;83.09
71857;BME280;63344;46.980;28.882;2023-01-28T08:05:52;100749.34;;;-0.24;83.19
71857;BME280;63344;46.980;28.882;2023-01-28T08:08:22;100745.03;;;-0.25;83.13
71857;BME280;63344;46.980;28.882;2023-01-28T08:10:50;100740.72;;;-0.18;83.00
71857;BME280;63344;46.980;28.882;2023-01-28T08:13:20;100737.22;;;-0.24;83.03
71857;BME280;63344;46.980;28.882;2023-01-28T08:15:56;100738.06;;;-0.20;82.48
71857;BME280;63344;46.980;28.882;2023-01-28T08:18:27;100745.03;;;-0.21;83.38
71857;BME280;63344;46.980;28.882;2023-01-28T08:20:58;100749.41;;;-0.19;83.68
71857;BME280;63344;46.980;28.882;2023-01-28T08:23:26;100750.31;;;-0.16;83.84
71857;BME280;63344;46.980;28.882;2023-01-28T08:25:54;100741.59;;;-0.18;83.25
71857;BME280;63344;46.980;28.882;2023-01-28T08:28:37;100741.66;;;-0.12;83.07
71857;BME280;63344;46.980;28.882;2023-01-28T08:31:04;100734.69;;;-0.07;83.02
71857;BME280;63344;46.980;28.882;2023-01-28T08:34:01;100714.75;;;0.00;82.32
71857;BME280;63344;46.980;28.882;2023-01-28T08:36:58;100709.56;;;0.09;81.72
71857;BME280;63344;46.980;28.882;2023-01-28T08:39:43;100714.78;;;0.11;81.24
71857;BME280;63344;46.980;28.882;2023-01-28T08:42:12;100720.97;;;0.22;80.52
71857;BME280;63344;46.980;28.882;2023-01-28T08:44:57;100720.91;;;0.19;80.45
71857;BME280;63344;46.980;28.882;2023-01-28T08:47:33;100721.84;;;0.27;80.35
71857;BME280;63344;46.980;28.882;2023-01-28T08:50:16;100710.53;;;0.28;80.59
71857;BME280;63344;46.980;28.882;2023-01-28T08:52:47;100701.81;;;0.29;80.59
71857;BME280;63344;46.980;28.882;2023-01-28T08:55:16;100705.34;;;0.39;79.91
71857;BME280;63344;46.980;28.882;2023-01-28T08:57:48;100693.16;;;0.36;79.49
71857;BME280;63344;46.980;28.882;2023-01-28T09:00:16;100692.34;;;0.48;79.88
71857;BME280;63344;46.980;28.882;2023-01-28T09:02:50;100694.94;;;0.57;78.96
71857;BME280;63344;46.980;28.882;2023-01-28T09:05:59;100690.56;;;0.46;79.38
71857;BME280;63344;46.980;28.882;2023-01-28T09:08:56;100673.13;;;0.48;79.05
71857;BME280;63344;46.980;28.882;2023-01-28T09:11:26;100696.63;;;0.42;79.49
71857;BME280;63344;46.980;28.882;2023-01-28T09:13:56;100686.16;;;0.34;79.48
71857;BME280;63344;46.980;28.882;2023-01-28T09:16:25;100693.16;;;0.36;79.49
71857;BME280;63344;46.980;28.882;2023-01-28T09:19:09;100649.59;;;0.32;79.59
71857;BME280;63344;46.980;28.882;2023-01-28T09:22:04;100674.88;;;0.36;79.42
71857;BME280;63344;46.980;28.882;2023-01-28T09:24:35;100668.72;;;0.30;79.97
71857;BME280;63344;46.980;28.882;2023-01-28T09:27:05;100651.31;;;0.24;79.76
71857;BME280;63344;46.980;28.882;2023-01-28T09:29:33;100663.50;;;0.30;80.07
71857;BME280;63344;46.980;28.882;2023-01-28T09:32:01;100643.50;;;0.29;80.01
71857;BME280;63344;46.980;28.882;2023-01-28T09:34:28;100642.63;;;0.27;79.94
71857;BME280;63344;46.980;28.882;2023-01-28T09:36:56;100656.50;;;0.21;80.12
71857;BME280;63344;46.980;28.882;2023-01-28T09:39:23;100642.56;;;0.16;80.21
71857;BME280;63344;46.980;28.882;2023-01-28T09:44:39;100647.75;;;0.10;80.53
71857;BME280;63344;46.980;28.882;2023-01-28T09:47:37;100642.53;;;0.10;80.51
71857;BME280;63344;46.980;28.882;2023-01-28T09:50:33;100627.72;;;0.01;80.29
71857;BME280;63344;46.980;28.882;2023-01-28T09:55:42;100639.00;;;-0.03;80.31
71857;BME280;63344;46.980;28.882;2023-01-28T09:58:14;100647.72;;;-0.06;81.28
71857;BME280;63344;46.980;28.882;2023-01-28T10:09:37;100665.97;;;-0.06;81.13
71857;BME280;63344;46.980;28.882;2023-01-28T10:17:58;100645.03;;;-0.16;80.18
71857;BME280;63344;46.980;28.882;2023-01-28T10:20:51;100653.75;;;-0.11;79.89
71857;BME280;63344;46.980;28.882;2023-01-28T10:23:25;100629.34;;;-0.16;79.03
71857;BME280;63344;46.980;28.882;2023-01-28T10:25:58;100644.19;;;-0.14;79.79
71857;BME280;63344;46.980;28.882;2023-01-28T10:28:29;100642.41;;;-0.16;78.74
71857;BME280;63344;46.980;28.882;2023-01-28T10:30:57;100650.22;;;-0.26;79.13
71857;BME280;63344;46.980;28.882;2023-01-28T10:35:56;100619.75;;;-0.27;79.48
71857;BME280;63344;46.980;28.882;2023-01-28T10:38:24;100634.50;;;-0.30;78.77
71857;BME280;63344;46.980;28.882;2023-01-28T10:40:58;100623.25;;;-0.22;79.08
71857;BME280;63344;46.980;28.882;2023-01-28T10:43:30;100640.69;;;-0.16;79.10
71857;BME280;63344;46.980;28.882;2023-01-28T10:48:41;100635.50;;;-0.11;78.13
71857;BME280;63344;46.980;28.882;2023-01-28T10:51:39;100623.25;;;-0.22;77.96
71857;BME280;63344;46.980;28.882;2023-01-28T10:54:30;100606.69;;;-0.28;77.90
71857;BME280;63344;46.980;28.882;2023-01-28T10:57:00;100634.53;;;-0.29;78.47
71857;BME280;63344;46.980;28.882;2023-01-28T10:59:32;100633.63;;;-0.32;79.22
71857;BME280;63344;46.980;28.882;2023-01-28T11:02:25;100633.63;;;-0.32;79.72
71857;BME280;63344;46.980;28.882;2023-01-28T11:05:15;100601.44;;;-0.34;79.44
71857;BME280;63344;46.980;28.882;2023-01-28T11:08:12;100611.88;;;-0.33;79.13
71857;BME280;63344;46.980;28.882;2023-01-28T11:10:41;100613.66;;;-0.27;78.72
71857;BME280;63344;46.980;28.882;2023-01-28T11:13:21;100620.56;;;-0.32;79.29
71857;BME280;63344;46.980;28.882;2023-01-28T11:15:52;100597.13;;;-0.29;79.50
71857;BME280;63344;46.980;28.882;2023-01-28T11:18:27;100602.31;;;-0.35;79.85
71857;BME280;63344;46.980;28.882;2023-01-28T11:21:04;100596.22;;;-0.36;80.05
71857;BME280;63344;46.980;28.882;2023-01-28T11:23:40;100621.47;;;-0.33;79.63
71857;BME280;63344;46.980;28.882;2023-01-28T11:26:28;100608.34;;;-0.43;79.65
71857;BME280;63344;46.980;28.882;2023-01-28T11:28:58;100605.78;;;-0.39;79.41
71857;BME280;63344;46.980;28.882;2023-01-28T11:31:25;100610.13;;;-0.35;78.90
71857;BME280;63344;46.980;28.882;2023-01-28T11:34:01;100604.03;;;-0.37;78.77
71857;BME280;63344;46.980;28.882;2023-01-28T11:36:32;100606.66;;;-0.36;80.27
71857;BME280;63344;46.980;28.882;2023-01-28T11:44:29;100606.63;;;-0.39;79.62
71857;BME280;63344;46.980;28.882;2023-01-28T11:58:20;100588.34;;;-0.42;79.87
71857;BME280;63344;46.980;28.882;2023-01-28T12:01:32;100599.69;;;-0.37;79.55
71857;BME280;63344;46.980;28.882;2023-01-28T12:10:00;100590.16;;;-0.24;78.10
71857;BME280;63344;46.980;28.882;2023-01-28T12:18:10;100595.44;;;-0.15;77.37
71857;BME280;63344;46.980;28.882;2023-01-28T12:26:50;100578.91;;;-0.22;78.46
71857;BME280;63344;46.980;28.882;2023-01-28T12:32:35;100591.94;;;-0.22;79.47
71857;BME280;63344;46.980;28.882;2023-01-28T12:35:16;100606.72;;;-0.25;79.57
71857;BME280;63344;46.980;28.882;2023-01-28T12:38:08;100594.47;;;-0.37;79.81
71857;BME280;63344;46.980;28.882;2023-01-28T12:41:01;100587.53;;;-0.35;80.35
71857;BME280;63344;46.980;28.882;2023-01-28T12:49:16;100604.09;;;-0.22;80.40
71857;BME280;63344;46.980;28.882;2023-01-28T12:57:18;100612.75;;;-0.32;80.59
71857;BME280;63344;46.980;28.882;2023-01-28T12:59:51;100593.56;;;-0.41;80.04
71857;BME280;63344;46.980;28.882;2023-01-28T13:02:26;100615.28;;;-0.45;81.28
71857;BME280;63344;46.980;28.882;2023-01-28T13:05:16;100590.03;;;-0.53;81.75
71857;BME280;63344;46.980;28.882;2023-01-28T13:08:04;100611.75;;;-0.57;81.77
71857;BME280;63344;46.980;28.882;2023-01-28T13:10:40;100622.09;;;-0.67;82.02
71857;BME280;63344;46.980;28.882;2023-01-28T13:13:31;100623.00;;;-0.60;81.99
71857;BME280;63344;46.980;28.882;2023-01-28T13:16:01;100623.00;;;-0.63;82.75
71857;BME280;63344;46.980;28.882;2023-01-28T13:21:02;100611.69;;;-0.67;83.57
71857;BME280;63344;46.980;28.882;2023-01-28T13:28:36;100640.28;;;-0.77;83.81
71857;BME280;63344;46.980;28.882;2023-01-28T13:31:09;100649.88;;;-0.75;83.98
71857;BME280;63344;46.980;28.882;2023-01-28T13:33:41;100640.25;;;-0.81;85.17
71857;BME280;63344;46.980;28.882;2023-01-28T13:38:38;100644.53;;;-0.92;85.43
71857;BME280;63344;46.980;28.882;2023-01-28T13:41:06;100647.13;;;-0.92;85.43
71857;BME280;63344;46.980;28.882;2023-01-28T13:43:39;100636.75;;;-0.86;85.47
71857;BME280;63344;46.980;28.882;2023-01-28T13:46:14;100650.59;;;-0.91;86.33
71857;BME280;63344;46.980;28.882;2023-01-28T13:48:54;100655.78;;;-0.94;86.00
71857;BME280;63344;46.980;28.882;2023-01-28T13:51:27;100660.97;;;-0.99;86.16
71857;BME280;63344;46.980;28.882;2023-01-28T13:54:05;100670.53;;;-0.96;85.93
71857;BME280;63344;46.980;28.882;2023-01-28T13:56:41;100669.69;;;-0.94;85.42
71857;BME280;63344;46.980;28.882;2023-01-28T14:19:10;100664.53;;;-0.89;84.53
71857;BME280;63344;46.980;28.882;2023-01-28T14:21:39;100663.66;;;-0.91;85.02
71857;BME280;63344;46.980;28.882;2023-01-28T14:24:15;100685.34;;;-0.92;85.54
71857;BME280;63344;46.980;28.882;2023-01-28T14:29:25;100682.66;;;-1.03;86.49
71857;BME280;63344;46.980;28.882;2023-01-28T14:31:54;100685.19;;;-1.11;88.28
71857;BME280;63344;46.980;28.882;2023-01-28T14:36:53;100696.44;;;-1.15;89.68
71857;BME280;63344;46.980;28.882;2023-01-28T14:39:31;100676.38;;;-1.21;89.88
71857;BME280;63344;46.980;28.882;2023-01-28T14:42:01;100687.75;;;-1.15;89.03
71857;BME280;63344;46.980;28.882;2023-01-28T14:50:28;100691.19;;;-1.19;89.77
71857;BME280;63344;46.980;28.882;2023-01-28T14:55:52;100698.94;;;-1.23;90.17
71857;BME280;63344;46.980;28.882;2023-01-28T14:58:43;100711.91;;;-1.29;90.54
71857;BME280;63344;46.980;28.882;2023-01-28T15:01:25;100704.03;;;-1.35;91.74
71857;BME280;63344;46.980;28.882;2023-01-28T15:03:53;100707.47;;;-1.39;92.37
71857;BME280;63344;46.980;28.882;2023-01-28T15:06:24;100710.09;;;-1.37;92.49
71857;BME280;63344;46.980;28.882;2023-01-28T15:09:06;100719.69;;;-1.32;92.16
71857;BME280;63344;46.980;28.882;2023-01-28T15:11:36;100718.75;;;-1.38;91.96
71857;BME280;63344;46.980;28.882;2023-01-28T15:14:12;100708.34;;;-1.38;92.08
71857;BME280;63344;46.980;28.882;2023-01-28T15:16:47;100714.41;;;-1.39;91.73
71857;BME280;63344;46.980;28.882;2023-01-28T15:19:16;100710.91;;;-1.43;92.17
71857;BME280;63344;46.980;28.882;2023-01-28T15:21:54;100721.41;;;-1.34;91.94
71857;BME280;63344;46.980;28.882;2023-01-28T15:24:22;100712.66;;;-1.41;92.08
71857;BME280;63344;46.980;28.882;2023-01-28T15:26:49;100718.81;;;-1.35;92.14
71857;BME280;63344;46.980;28.882;2023-01-28T15:29:32;100721.34;;;-1.38;92.04
71857;BME280;63344;46.980;28.882;2023-01-28T15:32:03;100720.44;;;-1.42;92.26
71857;BME280;63344;46.980;28.882;2023-01-28T15:34:51;100724.75;;;-1.44;92.14